sensor_id;sensor_type;location;lat;lon;timestamp;P1;durP1;ratioP1;P2;durP2;ratioP2
8213;SDS011;4148;47.974;7.824;2023-08-12T00:02:15;4.07;;;3.20;;
8213;SDS011;4148;47.974;7.824;2023-08-12T00:04:44;5.13;;;4.13;;
8213;SDS011;4148;47.974;7.824;2023-08-12T00:07:15;6.63;;;4.00;;
8213;SDS011;4148;47.974;7.824;2023-08-12T00:09:43;4.40;;;3.80;;
8213;SDS011;4148;47.974;7.824;2023-08-12T00:12:10;3.73;;;3.33;;
8213;SDS011;4148;47.974;7.824;2023-08-12T00:14:38;4.20;;;3.60;;
8213;SDS011;4148;47.974;7.824;2023-08-12T00:17:06;5.10;;;3.50;;
8213;SDS011;4148;47.974;7.824;2023-08-12T00:19:34;5.87;;;3.10;;
8213;SDS011;4148;47.974;7.824;2023-08-12T00:22:02;3.27;;;2.97;;
8213;SDS011;4148;47.974;7.824;2023-08-12T00:24:32;5.30;;;3.33;;
8213;SDS011;4148;47.974;7.824;2023-08-12T00:27:00;5.67;;;3.83;;
8213;SDS011;4148;47.974;7.824;2023-08-12T00:29:28;4.03;;;3.53;;
8213;SDS011;4148;47.974;7.824;2023-08-12T00:31:56;3.90;;;3.07;;
8213;SDS011;4148;47.974;7.824;2023-08-12T00:34:24;5.77;;;3.97;;
8213;SDS011;4148;47.974;7.824;2023-08-12T00:36:52;6.03;;;3.20;;
8213;SDS011;4148;47.974;7.824;2023-08-12T00:39:20;4.13;;;3.17;;
8213;SDS011;4148;47.974;7.824;2023-08-12T00:41:50;3.60;;;3.30;;
8213;SDS011;4148;47.974;7.824;2023-08-12T00:44:18;4.13;;;2.90;;
8213;SDS011;4148;47.974;7.824;2023-08-12T00:46:46;4.80;;;3.70;;
8213;SDS011;4148;47.974;7.824;2023-08-12T00:49:14;5.13;;;3.00;;
8213;SDS011;4148;47.974;7.824;2023-08-12T00:51:43;3.90;;;3.50;;
8213;SDS011;4148;47.974;7.824;2023-08-12T00:54:13;6.03;;;3.27;;
8213;SDS011;4148;47.974;7.824;2023-08-12T00:56:42;4.10;;;3.60;;
8213;SDS011;4148;47.974;7.824;2023-08-12T00:59:12;3.97;;;3.30;;
8213;SDS011;4148;47.974;7.824;2023-08-12T01:01:40;6.90;;;3.40;;
8213;SDS011;4148;47.974;7.824;2023-08-12T01:04:09;3.50;;;3.13;;
8213;SDS011;4148;47.974;7.824;2023-08-12T01:06:37;6.80;;;3.53;;
8213;SDS011;4148;47.974;7.824;2023-08-12T01:09:05;4.03;;;3.30;;
8213;SDS011;4148;47.974;7.824;2023-08-12T01:11:35;3.83;;;3.33;;
8213;SDS011;4148;47.974;7.824;2023-08-12T01:14:08;3.43;;;2.93;;
8213;SDS011;4148;47.974;7.824;2023-08-12T01:16:45;5.50;;;3.03;;
8213;SDS011;4148;47.974;7.824;2023-08-12T01:19:21;5.47;;;3.47;;
8213;SDS011;4148;47.974;7.824;2023-08-12T01:21:58;4.20;;;3.57;;
8213;SDS011;4148;47.974;7.824;2023-08-12T01:24:34;3.57;;;3.27;;
8213;SDS011;4148;47.974;7.824;2023-08-12T01:27:03;4.13;;;3.40;;
8213;SDS011;4148;47.974;7.824;2023-08-12T01:29:32;4.40;;;3.40;;
8213;SDS011;4148;47.974;7.824;2023-08-12T01:32:03;4.80;;;3.33;;
8213;SDS011;4148;47.974;7.824;2023-08-12T01:34:38;3.97;;;3.00;;
8213;SDS011;4148;47.974;7.824;2023-08-12T01:37:11;5.90;;;3.00;;
8213;SDS011;4148;47.974;7.824;2023-08-12T01:39:48;3.90;;;3.20;;
8213;SDS011;4148;47.974;7.824;2023-08-12T01:42:17;5.00;;;3.40;;
8213;SDS011;4148;47.974;7.824;2023-08-12T01:44:46;4.20;;;3.60;;
8213;SDS011;4148;47.974;7.824;2023-08-12T01:47:15;4.53;;;3.47;;
8213;SDS011;4148;47.974;7.824;2023-08-12T01:49:43;4.40;;;3.80;;
8213;SDS011;4148;47.974;7.824;2023-08-12T01:52:11;5.60;;;3.30;;
8213;SDS011;4148;47.974;7.824;2023-08-12T01:54:38;4.50;;;3.70;;
8213;SDS011;4148;47.974;7.824;2023-08-12T01:57:08;3.80;;;3.20;;
8213;SDS011;4148;47.974;7.824;2023-08-12T01:59:36;5.90;;;3.20;;
8213;SDS011;4148;47.974;7.824;2023-08-12T02:02:04;5.03;;;3.20;;
8213;SDS011;4148;47.974;7.824;2023-08-12T02:04:33;4.40;;;3.30;;
8213;SDS011;4148;47.974;7.824;2023-08-12T02:07:03;3.40;;;3.10;;
8213;SDS011;4148;47.974;7.824;2023-08-12T02:09:30;3.40;;;3.10;;
8213;SDS011;4148;47.974;7.824;2023-08-12T02:11:58;4.60;;;3.87;;
8213;SDS011;4148;47.974;7.824;2023-08-12T02:14:28;4.63;;;3.23;;
8213;SDS011;4148;47.974;7.824;2023-08-12T02:16:55;5.90;;;3.43;;
8213;SDS011;4148;47.974;7.824;2023-08-12T02:19:23;5.47;;;3.00;;
8213;SDS011;4148;47.974;7.824;2023-08-12T02:21:51;4.30;;;2.87;;
8213;SDS011;4148;47.974;7.824;2023-08-12T02:24:19;4.33;;;3.40;;
8213;SDS011;4148;47.974;7.824;2023-08-12T02:26:47;4.40;;;3.53;;
8213;SDS011;4148;47.974;7.824;2023-08-12T02:29:15;7.60;;;4.07;;
8213;SDS011;4148;47.974;7.824;2023-08-12T02:31:44;3.77;;;3.10;;
8213;SDS011;4148;47.974;7.824;2023-08-12T02:34:12;4.90;;;3.63;;
8213;SDS011;4148;47.974;7.824;2023-08-12T02:36:39;4.50;;;3.50;;
8213;SDS011;4148;47.974;7.824;2023-08-12T02:39:07;5.57;;;3.20;;
8213;SDS011;4148;47.974;7.824;2023-08-12T02:41:35;3.77;;;3.40;;
8213;SDS011;4148;47.974;7.824;2023-08-12T02:44:03;3.17;;;2.50;;
8213;SDS011;4148;47.974;7.824;2023-08-12T02:46:31;4.13;;;3.20;;
8213;SDS011;4148;47.974;7.824;2023-08-12T02:49:00;3.27;;;2.97;;
8213;SDS011;4148;47.974;7.824;2023-08-12T02:51:28;3.70;;;3.30;;
8213;SDS011;4148;47.974;7.824;2023-08-12T02:53:56;3.70;;;3.23;;
8213;SDS011;4148;47.974;7.824;2023-08-12T02:56:24;5.13;;;3.43;;
8213;SDS011;4148;47.974;7.824;2023-08-12T02:58:52;3.83;;;3.43;;
8213;SDS011;4148;47.974;7.824;2023-08-12T03:01:20;3.87;;;3.20;;
8213;SDS011;4148;47.974;7.824;2023-08-12T03:03:48;4.20;;;3.30;;
8213;SDS011;4148;47.974;7.824;2023-08-12T03:06:17;6.70;;;3.20;;
8213;SDS011;4148;47.974;7.824;2023-08-12T03:08:45;4.00;;;3.60;;
8213;SDS011;4148;47.974;7.824;2023-08-12T03:11:13;3.50;;;3.00;;
8213;SDS011;4148;47.974;7.824;2023-08-12T03:13:41;3.40;;;3.00;;
8213;SDS011;4148;47.974;7.824;2023-08-12T03:16:10;4.77;;;2.97;;
8213;SDS011;4148;47.974;7.824;2023-08-12T03:18:39;3.77;;;3.27;;
8213;SDS011;4148;47.974;7.824;2023-08-12T03:21:07;3.80;;;3.17;;
8213;SDS011;4148;47.974;7.824;2023-08-12T03:23:37;4.50;;;3.13;;
8213;SDS011;4148;47.974;7.824;2023-08-12T03:26:05;4.70;;;3.63;;
8213;SDS011;4148;47.974;7.824;2023-08-12T03:28:33;4.00;;;3.20;;
8213;SDS011;4148;47.974;7.824;2023-08-12T03:31:01;4.27;;;3.60;;
8213;SDS011;4148;47.974;7.824;2023-08-12T03:33:29;4.83;;;3.67;;
8213;SDS011;4148;47.974;7.824;2023-08-12T03:35:58;4.33;;;3.10;;
8213;SDS011;4148;47.974;7.824;2023-08-12T03:38:26;4.43;;;3.70;;
8213;SDS011;4148;47.974;7.824;2023-08-12T03:40:55;5.90;;;3.53;;
8213;SDS011;4148;47.974;7.824;2023-08-12T03:43:23;5.33;;;3.27;;
8213;SDS011;4148;47.974;7.824;2023-08-12T03:45:51;4.33;;;3.20;;
8213;SDS011;4148;47.974;7.824;2023-08-12T03:48:19;3.90;;;2.83;;
8213;SDS011;4148;47.974;7.824;2023-08-12T03:50:47;4.00;;;3.20;;
8213;SDS011;4148;47.974;7.824;2023-08-12T03:53:14;5.07;;;3.10;;
8213;SDS011;4148;47.974;7.824;2023-08-12T03:55:43;3.83;;;3.43;;
8213;SDS011;4148;47.974;7.824;2023-08-12T03:58:12;3.83;;;3.43;;
8213;SDS011;4148;47.974;7.824;2023-08-12T04:00:41;3.77;;;3.37;;
8213;SDS011;4148;47.974;7.824;2023-08-12T04:03:09;4.90;;;3.00;;
8213;SDS011;4148;47.974;7.824;2023-08-12T04:05:38;4.07;;;3.77;;
8213;SDS011;4148;47.974;7.824;2023-08-12T04:08:13;7.17;;;3.23;;
8213;SDS011;4148;47.974;7.824;2023-08-12T04:10:43;3.77;;;3.20;;
8213;SDS011;4148;47.974;7.824;2023-08-12T04:13:13;6.00;;;3.33;;
8213;SDS011;4148;47.974;7.824;2023-08-12T04:15:42;3.80;;;3.30;;
8213;SDS011;4148;47.974;7.824;2023-08-12T04:18:10;4.33;;;2.70;;
8213;SDS011;4148;47.974;7.824;2023-08-12T04:20:38;3.37;;;2.80;;
8213;SDS011;4148;47.974;7.824;2023-08-12T04:23:06;3.83;;;3.20;;
8213;SDS011;4148;47.974;7.824;2023-08-12T04:25:34;3.93;;;3.53;;
8213;SDS011;4148;47.974;7.824;2023-08-12T04:28:02;4.13;;;3.50;;
8213;SDS011;4148;47.974;7.824;2023-08-12T04:30:32;4.37;;;3.33;;
8213;SDS011;4148;47.974;7.824;2023-08-12T04:33:00;3.27;;;2.97;;
8213;SDS011;4148;47.974;7.824;2023-08-12T04:35:30;3.40;;;3.10;;
8213;SDS011;4148;47.974;7.824;2023-08-12T04:37:58;4.03;;;3.13;;
8213;SDS011;4148;47.974;7.824;2023-08-12T04:40:27;4.70;;;2.90;;
8213;SDS011;4148;47.974;7.824;2023-08-12T04:43:12;5.60;;;2.80;;
8213;SDS011;4148;47.974;7.824;2023-08-12T04:45:44;3.87;;;3.30;;
8213;SDS011;4148;47.974;7.824;2023-08-12T04:48:12;4.43;;;3.30;;
8213;SDS011;4148;47.974;7.824;2023-08-12T04:50:41;4.07;;;3.67;;
8213;SDS011;4148;47.974;7.824;2023-08-12T04:53:09;3.90;;;3.50;;
8213;SDS011;4148;47.974;7.824;2023-08-12T04:55:37;3.37;;;3.07;;
8213;SDS011;4148;47.974;7.824;2023-08-12T04:58:05;5.80;;;3.30;;
8213;SDS011;4148;47.974;7.824;2023-08-12T05:00:33;4.17;;;3.40;;
8213;SDS011;4148;47.974;7.824;2023-08-12T05:03:02;5.37;;;4.10;;
8213;SDS011;4148;47.974;7.824;2023-08-12T05:05:31;3.27;;;2.97;;
8213;SDS011;4148;47.974;7.824;2023-08-12T05:07:58;4.10;;;3.60;;
8213;SDS011;4148;47.974;7.824;2023-08-12T05:10:26;4.67;;;3.30;;
8213;SDS011;4148;47.974;7.824;2023-08-12T05:12:54;5.20;;;3.37;;
8213;SDS011;4148;47.974;7.824;2023-08-12T05:15:24;5.80;;;3.30;;
8213;SDS011;4148;47.974;7.824;2023-08-12T05:17:52;5.83;;;4.17;;
8213;SDS011;4148;47.974;7.824;2023-08-12T05:20:21;3.30;;;3.00;;
8213;SDS011;4148;47.974;7.824;2023-08-12T05:22:49;3.40;;;3.10;;
8213;SDS011;4148;47.974;7.824;2023-08-12T05:25:17;5.63;;;3.30;;
8213;SDS011;4148;47.974;7.824;2023-08-12T05:27:45;3.80;;;3.20;;
8213;SDS011;4148;47.974;7.824;2023-08-12T05:30:13;3.73;;;3.17;;
8213;SDS011;4148;47.974;7.824;2023-08-12T05:32:41;7.07;;;3.40;;
8213;SDS011;4148;47.974;7.824;2023-08-12T05:35:09;4.60;;;3.27;;
8213;SDS011;4148;47.974;7.824;2023-08-12T05:37:38;4.63;;;3.53;;
8213;SDS011;4148;47.974;7.824;2023-08-12T05:40:07;3.63;;;3.33;;
8213;SDS011;4148;47.974;7.824;2023-08-12T05:42:36;5.20;;;3.37;;
8213;SDS011;4148;47.974;7.824;2023-08-12T05:45:04;4.40;;;3.13;;
8213;SDS011;4148;47.974;7.824;2023-08-12T05:47:34;4.47;;;3.63;;
8213;SDS011;4148;47.974;7.824;2023-08-12T05:50:02;3.63;;;3.20;;
8213;SDS011;4148;47.974;7.824;2023-08-12T05:52:30;3.73;;;3.30;;
8213;SDS011;4148;47.974;7.824;2023-08-12T05:54:59;3.40;;;3.07;;
8213;SDS011;4148;47.974;7.824;2023-08-12T05:57:27;5.00;;;3.40;;
8213;SDS011;4148;47.974;7.824;2023-08-12T05:59:55;5.40;;;3.60;;
8213;SDS011;4148;47.974;7.824;2023-08-12T06:02:24;3.90;;;3.40;;
8213;SDS011;4148;47.974;7.824;2023-08-12T06:04:52;4.03;;;3.47;;
8213;SDS011;4148;47.974;7.824;2023-08-12T06:07:20;4.83;;;3.43;;
8213;SDS011;4148;47.974;7.824;2023-08-12T06:09:49;4.63;;;3.70;;
8213;SDS011;4148;47.974;7.824;2023-08-12T06:12:18;6.03;;;3.40;;
8213;SDS011;4148;47.974;7.824;2023-08-12T06:14:46;4.80;;;2.97;;
8213;SDS011;4148;47.974;7.824;2023-08-12T06:17:14;7.27;;;3.97;;
8213;SDS011;4148;47.974;7.824;2023-08-12T06:19:42;4.30;;;3.90;;
8213;SDS011;4148;47.974;7.824;2023-08-12T06:22:10;5.27;;;3.70;;
8213;SDS011;4148;47.974;7.824;2023-08-12T06:24:38;4.50;;;3.27;;
8213;SDS011;4148;47.974;7.824;2023-08-12T06:27:06;4.30;;;3.60;;
8213;SDS011;4148;47.974;7.824;2023-08-12T06:29:35;4.50;;;3.93;;
8213;SDS011;4148;47.974;7.824;2023-08-12T06:32:03;4.40;;;4.00;;
8213;SDS011;4148;47.974;7.824;2023-08-12T06:34:31;5.03;;;3.63;;
8213;SDS011;4148;47.974;7.824;2023-08-12T06:36:59;3.87;;;3.47;;
8213;SDS011;4148;47.974;7.824;2023-08-12T06:39:27;5.33;;;4.23;;
8213;SDS011;4148;47.974;7.824;2023-08-12T06:41:55;4.03;;;3.63;;
8213;SDS011;4148;47.974;7.824;2023-08-12T06:44:23;4.47;;;3.90;;
8213;SDS011;4148;47.974;7.824;2023-08-12T06:46:52;4.93;;;4.23;;
8213;SDS011;4148;47.974;7.824;2023-08-12T06:49:20;4.27;;;3.57;;
8213;SDS011;4148;47.974;7.824;2023-08-12T06:51:48;5.30;;;3.60;;
8213;SDS011;4148;47.974;7.824;2023-08-12T06:54:15;3.97;;;3.57;;
8213;SDS011;4148;47.974;7.824;2023-08-12T06:56:43;3.60;;;3.30;;
8213;SDS011;4148;47.974;7.824;2023-08-12T06:59:11;4.30;;;3.53;;
8213;SDS011;4148;47.974;7.824;2023-08-12T07:01:39;5.60;;;4.40;;
8213;SDS011;4148;47.974;7.824;2023-08-12T07:04:08;4.90;;;3.73;;
8213;SDS011;4148;47.974;7.824;2023-08-12T07:06:36;5.10;;;4.07;;
8213;SDS011;4148;47.974;7.824;2023-08-12T07:09:04;3.70;;;3.40;;
8213;SDS011;4148;47.974;7.824;2023-08-12T07:11:32;4.53;;;4.13;;
8213;SDS011;4148;47.974;7.824;2023-08-12T07:14:00;4.00;;;3.60;;
8213;SDS011;4148;47.974;7.824;2023-08-12T07:16:28;4.90;;;4.07;;
8213;SDS011;4148;47.974;7.824;2023-08-12T07:18:56;4.90;;;4.40;;
8213;SDS011;4148;47.974;7.824;2023-08-12T07:21:25;6.53;;;4.07;;
8213;SDS011;4148;47.974;7.824;2023-08-12T07:23:53;5.30;;;4.67;;
8213;SDS011;4148;47.974;7.824;2023-08-12T07:26:29;4.57;;;4.00;;
8213;SDS011;4148;47.974;7.824;2023-08-12T07:28:57;5.87;;;4.00;;
8213;SDS011;4148;47.974;7.824;2023-08-12T07:31:25;3.97;;;3.47;;
8213;SDS011;4148;47.974;7.824;2023-08-12T07:33:53;5.30;;;3.90;;
8213;SDS011;4148;47.974;7.824;2023-08-12T07:36:21;6.27;;;3.90;;
8213;SDS011;4148;47.974;7.824;2023-08-12T07:38:50;4.43;;;3.90;;
8213;SDS011;4148;47.974;7.824;2023-08-12T07:41:18;5.30;;;4.43;;
8213;SDS011;4148;47.974;7.824;2023-08-12T07:43:46;5.67;;;4.30;;
8213;SDS011;4148;47.974;7.824;2023-08-12T07:46:14;5.37;;;4.30;;
8213;SDS011;4148;47.974;7.824;2023-08-12T07:48:42;4.70;;;3.90;;
8213;SDS011;4148;47.974;7.824;2023-08-12T07:51:10;4.73;;;3.87;;
8213;SDS011;4148;47.974;7.824;2023-08-12T07:53:38;4.83;;;4.37;;
8213;SDS011;4148;47.974;7.824;2023-08-12T07:56:07;4.97;;;4.47;;
8213;SDS011;4148;47.974;7.824;2023-08-12T07:58:35;5.03;;;4.13;;
8213;SDS011;4148;47.974;7.824;2023-08-12T08:01:03;5.17;;;4.57;;
8213;SDS011;4148;47.974;7.824;2023-08-12T08:03:32;5.80;;;4.27;;
8213;SDS011;4148;47.974;7.824;2023-08-12T08:06:00;5.53;;;4.80;;
8213;SDS011;4148;47.974;7.824;2023-08-12T08:08:28;6.90;;;4.20;;
8213;SDS011;4148;47.974;7.824;2023-08-12T08:10:56;6.83;;;4.00;;
8213;SDS011;4148;47.974;7.824;2023-08-12T08:13:25;9.63;;;4.40;;
8213;SDS011;4148;47.974;7.824;2023-08-12T08:15:53;4.60;;;3.97;;
8213;SDS011;4148;47.974;7.824;2023-08-12T08:18:21;5.70;;;4.50;;
8213;SDS011;4148;47.974;7.824;2023-08-12T08:20:49;6.17;;;4.30;;
8213;SDS011;4148;47.974;7.824;2023-08-12T08:23:17;4.60;;;4.20;;
8213;SDS011;4148;47.974;7.824;2023-08-12T08:25:45;6.20;;;4.60;;
8213;SDS011;4148;47.974;7.824;2023-08-12T08:28:13;8.03;;;4.13;;
8213;SDS011;4148;47.974;7.824;2023-08-12T08:30:42;8.57;;;4.50;;
8213;SDS011;4148;47.974;7.824;2023-08-12T08:33:10;4.70;;;4.03;;
8213;SDS011;4148;47.974;7.824;2023-08-12T08:35:39;5.27;;;4.40;;
8213;SDS011;4148;47.974;7.824;2023-08-12T08:38:06;4.17;;;3.77;;
8213;SDS011;4148;47.974;7.824;2023-08-12T08:40:34;4.70;;;4.30;;
8213;SDS011;4148;47.974;7.824;2023-08-12T08:43:04;5.37;;;4.43;;
8213;SDS011;4148;47.974;7.824;2023-08-12T08:45:34;4.50;;;3.93;;
8213;SDS011;4148;47.974;7.824;2023-08-12T08:48:04;4.80;;;4.30;;
8213;SDS011;4148;47.974;7.824;2023-08-12T08:50:33;5.70;;;4.43;;
8213;SDS011;4148;47.974;7.824;2023-08-12T08:53:02;5.60;;;4.93;;
8213;SDS011;4148;47.974;7.824;2023-08-12T08:55:33;5.03;;;4.50;;
8213;SDS011;4148;47.974;7.824;2023-08-12T08:58:01;6.70;;;4.60;;
8213;SDS011;4148;47.974;7.824;2023-08-12T09:00:31;9.60;;;4.27;;
8213;SDS011;4148;47.974;7.824;2023-08-12T09:02:59;5.23;;;4.57;;
8213;SDS011;4148;47.974;7.824;2023-08-12T09:05:30;6.87;;;4.03;;
8213;SDS011;4148;47.974;7.824;2023-08-12T09:08:01;14.27;;;4.70;;
8213;SDS011;4148;47.974;7.824;2023-08-12T09:10:30;14.47;;;6.40;;
8213;SDS011;4148;47.974;7.824;2023-08-12T09:12:59;12.00;;;6.47;;
8213;SDS011;4148;47.974;7.824;2023-08-12T09:15:28;7.37;;;5.00;;
8213;SDS011;4148;47.974;7.824;2023-08-12T09:17:56;6.20;;;5.27;;
8213;SDS011;4148;47.974;7.824;2023-08-12T09:20:24;6.43;;;4.83;;
8213;SDS011;4148;47.974;7.824;2023-08-12T09:22:56;12.67;;;6.20;;
8213;SDS011;4148;47.974;7.824;2023-08-12T09:25:26;6.73;;;5.43;;
8213;SDS011;4148;47.974;7.824;2023-08-12T09:27:55;6.27;;;4.93;;
8213;SDS011;4148;47.974;7.824;2023-08-12T09:30:28;5.33;;;4.70;;
8213;SDS011;4148;47.974;7.824;2023-08-12T09:32:58;7.77;;;5.00;;
8213;SDS011;4148;47.974;7.824;2023-08-12T09:35:32;6.47;;;5.40;;
8213;SDS011;4148;47.974;7.824;2023-08-12T09:38:04;5.73;;;4.60;;
8213;SDS011;4148;47.974;7.824;2023-08-12T09:40:33;8.20;;;5.93;;
8213;SDS011;4148;47.974;7.824;2023-08-12T09:43:02;6.83;;;5.83;;
8213;SDS011;4148;47.974;7.824;2023-08-12T09:45:31;5.50;;;4.90;;
8213;SDS011;4148;47.974;7.824;2023-08-12T09:48:00;5.50;;;4.80;;
8213;SDS011;4148;47.974;7.824;2023-08-12T09:50:28;5.73;;;5.13;;
8213;SDS011;4148;47.974;7.824;2023-08-12T09:52:56;5.27;;;4.77;;
8213;SDS011;4148;47.974;7.824;2023-08-12T09:55:26;5.57;;;4.90;;
8213;SDS011;4148;47.974;7.824;2023-08-12T09:57:55;8.67;;;5.70;;
8213;SDS011;4148;47.974;7.824;2023-08-12T10:00:24;7.40;;;5.00;;
8213;SDS011;4148;47.974;7.824;2023-08-12T10:02:52;7.30;;;4.50;;
8213;SDS011;4148;47.974;7.824;2023-08-12T10:05:21;6.83;;;4.80;;
8213;SDS011;4148;47.974;7.824;2023-08-12T10:07:52;5.90;;;5.03;;
8213;SDS011;4148;47.974;7.824;2023-08-12T10:10:21;7.53;;;4.53;;
8213;SDS011;4148;47.974;7.824;2023-08-12T10:12:51;5.60;;;5.00;;
8213;SDS011;4148;47.974;7.824;2023-08-12T10:15:19;5.50;;;4.63;;
8213;SDS011;4148;47.974;7.824;2023-08-12T10:17:48;5.10;;;3.63;;
8213;SDS011;4148;47.974;7.824;2023-08-12T10:20:20;5.80;;;4.20;;
8213;SDS011;4148;47.974;7.824;2023-08-12T10:22:50;4.50;;;3.90;;
8213;SDS011;4148;47.974;7.824;2023-08-12T10:25:19;4.73;;;3.67;;
8213;SDS011;4148;47.974;7.824;2023-08-12T10:27:48;5.20;;;4.00;;
8213;SDS011;4148;47.974;7.824;2023-08-12T10:30:20;4.83;;;3.93;;
8213;SDS011;4148;47.974;7.824;2023-08-12T10:32:48;5.67;;;4.23;;
8213;SDS011;4148;47.974;7.824;2023-08-12T10:35:16;6.00;;;3.87;;
8213;SDS011;4148;47.974;7.824;2023-08-12T10:37:47;4.97;;;3.90;;
8213;SDS011;4148;47.974;7.824;2023-08-12T10:40:19;7.13;;;4.60;;
8213;SDS011;4148;47.974;7.824;2023-08-12T10:42:50;6.20;;;4.97;;
8213;SDS011;4148;47.974;7.824;2023-08-12T10:45:18;4.47;;;3.93;;
8213;SDS011;4148;47.974;7.824;2023-08-12T10:47:51;4.90;;;4.33;;
8213;SDS011;4148;47.974;7.824;2023-08-12T10:50:36;6.00;;;4.30;;
8213;SDS011;4148;47.974;7.824;2023-08-12T10:53:20;4.90;;;4.40;;
8213;SDS011;4148;47.974;7.824;2023-08-12T10:55:50;5.80;;;4.70;;
8213;SDS011;4148;47.974;7.824;2023-08-12T10:58:27;4.70;;;4.20;;
8213;SDS011;4148;47.974;7.824;2023-08-12T11:00:56;5.00;;;4.50;;
8213;SDS011;4148;47.974;7.824;2023-08-12T11:03:25;6.63;;;4.10;;
8213;SDS011;4148;47.974;7.824;2023-08-12T11:06:00;4.90;;;4.03;;
8213;SDS011;4148;47.974;7.824;2023-08-12T11:08:29;4.83;;;4.07;;
8213;SDS011;4148;47.974;7.824;2023-08-12T11:10:57;4.27;;;3.30;;
8213;SDS011;4148;47.974;7.824;2023-08-12T11:13:30;4.67;;;3.40;;
8213;SDS011;4148;47.974;7.824;2023-08-12T11:16:05;5.40;;;3.67;;
8213;SDS011;4148;47.974;7.824;2023-08-12T11:18:35;10.00;;;6.30;;
8213;SDS011;4148;47.974;7.824;2023-08-12T11:21:03;10.90;;;5.83;;
8213;SDS011;4148;47.974;7.824;2023-08-12T11:23:31;8.83;;;4.57;;
8213;SDS011;4148;47.974;7.824;2023-08-12T11:25:59;9.07;;;4.50;;
8213;SDS011;4148;47.974;7.824;2023-08-12T11:28:30;8.93;;;4.70;;
8213;SDS011;4148;47.974;7.824;2023-08-12T11:30:57;9.50;;;4.90;;
8213;SDS011;4148;47.974;7.824;2023-08-12T11:33:25;8.03;;;5.07;;
8213;SDS011;4148;47.974;7.824;2023-08-12T11:35:53;10.70;;;5.80;;
8213;SDS011;4148;47.974;7.824;2023-08-12T11:38:21;10.60;;;5.50;;
8213;SDS011;4148;47.974;7.824;2023-08-12T11:40:50;10.70;;;5.80;;
8213;SDS011;4148;47.974;7.824;2023-08-12T11:43:20;9.23;;;5.30;;
8213;SDS011;4148;47.974;7.824;2023-08-12T11:45:50;6.50;;;4.90;;
8213;SDS011;4148;47.974;7.824;2023-08-12T11:48:18;8.47;;;5.57;;
8213;SDS011;4148;47.974;7.824;2023-08-12T11:50:46;7.30;;;5.77;;
8213;SDS011;4148;47.974;7.824;2023-08-12T11:53:14;6.40;;;4.83;;
8213;SDS011;4148;47.974;7.824;2023-08-12T11:55:42;9.67;;;4.90;;
8213;SDS011;4148;47.974;7.824;2023-08-12T11:58:11;6.20;;;4.67;;
8213;SDS011;4148;47.974;7.824;2023-08-12T12:00:46;5.43;;;4.93;;
8213;SDS011;4148;47.974;7.824;2023-08-12T12:03:15;8.97;;;5.70;;
8213;SDS011;4148;47.974;7.824;2023-08-12T12:05:45;7.23;;;5.30;;
8213;SDS011;4148;47.974;7.824;2023-08-12T12:08:14;9.40;;;5.70;;
8213;SDS011;4148;47.974;7.824;2023-08-12T12:10:42;6.47;;;4.87;;
8213;SDS011;4148;47.974;7.824;2023-08-12T12:13:10;7.43;;;5.10;;
8213;SDS011;4148;47.974;7.824;2023-08-12T12:15:41;7.43;;;4.67;;
8213;SDS011;4148;47.974;7.824;2023-08-12T12:18:09;6.40;;;4.63;;
8213;SDS011;4148;47.974;7.824;2023-08-12T12:20:53;8.13;;;6.20;;
8213;SDS011;4148;47.974;7.824;2023-08-12T12:23:21;5.73;;;4.63;;
8213;SDS011;4148;47.974;7.824;2023-08-12T12:25:56;7.53;;;4.60;;
8213;SDS011;4148;47.974;7.824;2023-08-12T12:28:25;8.33;;;5.10;;
8213;SDS011;4148;47.974;7.824;2023-08-12T12:30:53;6.90;;;4.00;;
8213;SDS011;4148;47.974;7.824;2023-08-12T12:33:21;7.63;;;4.87;;
8213;SDS011;4148;47.974;7.824;2023-08-12T12:35:51;7.90;;;5.03;;
8213;SDS011;4148;47.974;7.824;2023-08-12T12:38:25;6.77;;;4.33;;
8213;SDS011;4148;47.974;7.824;2023-08-12T12:40:53;6.10;;;4.50;;
8213;SDS011;4148;47.974;7.824;2023-08-12T12:43:21;5.07;;;4.50;;
8213;SDS011;4148;47.974;7.824;2023-08-12T12:45:48;8.40;;;5.40;;
8213;SDS011;4148;47.974;7.824;2023-08-12T12:48:16;5.30;;;4.23;;
8213;SDS011;4148;47.974;7.824;2023-08-12T12:50:44;5.53;;;4.90;;
8213;SDS011;4148;47.974;7.824;2023-08-12T12:53:13;5.40;;;4.70;;
8213;SDS011;4148;47.974;7.824;2023-08-12T12:55:41;6.50;;;5.07;;
8213;SDS011;4148;47.974;7.824;2023-08-12T12:58:10;6.50;;;4.90;;
8213;SDS011;4148;47.974;7.824;2023-08-12T13:00:38;8.13;;;4.70;;
8213;SDS011;4148;47.974;7.824;2023-08-12T13:03:06;5.90;;;5.10;;
8213;SDS011;4148;47.974;7.824;2023-08-12T13:05:34;5.47;;;4.90;;
8213;SDS011;4148;47.974;7.824;2023-08-12T13:08:02;5.10;;;4.60;;
8213;SDS011;4148;47.974;7.824;2023-08-12T13:10:31;5.80;;;4.43;;
8213;SDS011;4148;47.974;7.824;2023-08-12T13:12:59;5.40;;;4.90;;
8213;SDS011;4148;47.974;7.824;2023-08-12T13:15:27;6.07;;;5.17;;
8213;SDS011;4148;47.974;7.824;2023-08-12T13:17:55;11.80;;;5.00;;
8213;SDS011;4148;47.974;7.824;2023-08-12T13:20:23;4.93;;;4.03;;
8213;SDS011;4148;47.974;7.824;2023-08-12T13:22:51;7.70;;;5.10;;
8213;SDS011;4148;47.974;7.824;2023-08-12T13:25:19;10.97;;;8.07;;
8213;SDS011;4148;47.974;7.824;2023-08-12T13:27:48;13.57;;;11.93;;
8213;SDS011;4148;47.974;7.824;2023-08-12T13:30:16;28.93;;;26.13;;
8213;SDS011;4148;47.974;7.824;2023-08-12T13:32:44;19.83;;;17.60;;
8213;SDS011;4148;47.974;7.824;2023-08-12T13:35:12;9.00;;;8.10;;
8213;SDS011;4148;47.974;7.824;2023-08-12T13:37:39;10.30;;;9.00;;
8213;SDS011;4148;47.974;7.824;2023-08-12T13:40:08;6.67;;;5.67;;
8213;SDS011;4148;47.974;7.824;2023-08-12T13:42:37;5.67;;;5.17;;
8213;SDS011;4148;47.974;7.824;2023-08-12T13:45:07;5.87;;;5.37;;
8213;SDS011;4148;47.974;7.824;2023-08-12T13:47:37;5.83;;;5.13;;
8213;SDS011;4148;47.974;7.824;2023-08-12T13:50:05;7.40;;;5.70;;
8213;SDS011;4148;47.974;7.824;2023-08-12T13:52:33;5.93;;;4.63;;
8213;SDS011;4148;47.974;7.824;2023-08-12T13:55:01;5.73;;;4.77;;
8213;SDS011;4148;47.974;7.824;2023-08-12T13:57:30;6.43;;;4.83;;
8213;SDS011;4148;47.974;7.824;2023-08-12T13:59:57;9.63;;;5.77;;
8213;SDS011;4148;47.974;7.824;2023-08-12T14:02:27;5.50;;;4.83;;
8213;SDS011;4148;47.974;7.824;2023-08-12T14:04:56;6.67;;;4.87;;
8213;SDS011;4148;47.974;7.824;2023-08-12T14:07:24;6.30;;;4.97;;
8213;SDS011;4148;47.974;7.824;2023-08-12T14:09:51;6.00;;;4.53;;
8213;SDS011;4148;47.974;7.824;2023-08-12T14:12:19;5.10;;;4.60;;
8213;SDS011;4148;47.974;7.824;2023-08-12T14:14:47;5.20;;;4.50;;
8213;SDS011;4148;47.974;7.824;2023-08-12T14:17:15;6.40;;;4.63;;
8213;SDS011;4148;47.974;7.824;2023-08-12T14:19:48;7.93;;;5.53;;
8213;SDS011;4148;47.974;7.824;2023-08-12T14:22:17;4.97;;;4.43;;
8213;SDS011;4148;47.974;7.824;2023-08-12T14:24:45;4.93;;;4.43;;
8213;SDS011;4148;47.974;7.824;2023-08-12T14:27:14;6.03;;;5.43;;
8213;SDS011;4148;47.974;7.824;2023-08-12T14:29:43;5.43;;;4.90;;
8213;SDS011;4148;47.974;7.824;2023-08-12T14:32:11;5.27;;;4.20;;
8213;SDS011;4148;47.974;7.824;2023-08-12T14:34:42;7.37;;;4.50;;
8213;SDS011;4148;47.974;7.824;2023-08-12T14:37:13;5.83;;;5.20;;
8213;SDS011;4148;47.974;7.824;2023-08-12T14:39:42;6.33;;;5.00;;
8213;SDS011;4148;47.974;7.824;2023-08-12T14:42:09;5.30;;;4.80;;
8213;SDS011;4148;47.974;7.824;2023-08-12T14:44:37;7.17;;;4.70;;
8213;SDS011;4148;47.974;7.824;2023-08-12T14:47:06;6.23;;;4.73;;
8213;SDS011;4148;47.974;7.824;2023-08-12T14:49:34;6.90;;;5.30;;
8213;SDS011;4148;47.974;7.824;2023-08-12T14:52:01;7.17;;;4.40;;
8213;SDS011;4148;47.974;7.824;2023-08-12T14:54:31;8.40;;;4.27;;
8213;SDS011;4148;47.974;7.824;2023-08-12T14:56:59;5.00;;;4.27;;
8213;SDS011;4148;47.974;7.824;2023-08-12T14:59:27;6.40;;;4.87;;
8213;SDS011;4148;47.974;7.824;2023-08-12T15:01:54;6.10;;;4.93;;
8213;SDS011;4148;47.974;7.824;2023-08-12T15:04:22;5.47;;;4.87;;
8213;SDS011;4148;47.974;7.824;2023-08-12T15:06:50;7.00;;;4.93;;
8213;SDS011;4148;47.974;7.824;2023-08-12T15:09:18;5.73;;;5.13;;
8213;SDS011;4148;47.974;7.824;2023-08-12T15:11:47;5.97;;;4.57;;
8213;SDS011;4148;47.974;7.824;2023-08-12T15:14:16;5.70;;;4.80;;
8213;SDS011;4148;47.974;7.824;2023-08-12T15:16:44;5.37;;;4.87;;
8213;SDS011;4148;47.974;7.824;2023-08-12T15:19:12;9.40;;;4.83;;
8213;SDS011;4148;47.974;7.824;2023-08-12T15:21:40;7.03;;;4.97;;
8213;SDS011;4148;47.974;7.824;2023-08-12T15:24:07;8.17;;;5.40;;
8213;SDS011;4148;47.974;7.824;2023-08-12T15:26:35;6.23;;;4.73;;